AirNav   TITAN Aviation Fuels
 
 1225 users online  

53OI Metro Health Medical Center Heliport
Cleveland, Ohio, USA

GOING TO CLEVELAND?


FAA INFORMATION EFFECTIVE 08 SEPTEMBER 2022

Location

FAA Identifier: 53OI
Lat/Long: 41-27-38.2807N 081-41-51.4721W
41-27.638012N 081-41.857868W
41.4606335,-81.6976311
(estimated)
Elevation: 735 ft. / 224 m (estimated)
Variation: 07W (1980)
From city: 2 miles S of CLEVELAND, OH
Time zone: UTC -4 (UTC -5 during Standard Time)
Zip code: 44109

Heliport Operations

Heliport use: Private use, MEDICAL USE.
Activation date: 11/1986
Control tower: no
ARTCC: CLEVELAND CENTER
FSS: CLEVELAND FLIGHT SERVICE STATION
Attendance: CONTINUOUS
Wind indicator: lighted
Segmented circle: no
Lights: SS-SR
Beacon: white-green-yellow (heliport)
Operates sunset to sunrise.

Heliport Communications

WX ASOS at BKL (3 nm N): PHONE 216-241-6904
WX ASOS at CLE (8 nm SW): PHONE 216-416-2729
WX AWOS-3 at CGF (11 nm NE): 119.950 (216-289-4113)
WX AWOS-3PT at LNN (19 nm NE): 119.225 (440-942-0809)
  • 123.025.

Nearby radio navigation aids

VOR radial/distance  VOR name  Freq  Var
DJBr079/21.8DRYER VOR/DME113.6005W
CXRr267/24.3CHARDON VOR/DME112.7005W
ACOr317/30.8AKRON VOR/DME114.4004W

 
NDB name  Hdg/Dist  Freq  Var  ID
LAKELAND235/19.526308WLQL .-.. --.- .-..

Heliport Services

Runway Information

Helipad H1

Dimensions: 50 x 175 ft. / 15 x 53 m
Surface: concrete
ROOFTOP. HELIPORT WITH ONE TAKE-OFF AND LANDING SPOT AND TWO PARKING SPOTS.
Weight bearing capacity: 
Single wheel: 14 AUW
Traffic pattern: leftleft

Heliport Ownership and Management from official FAA records

Ownership: Privately-owned
Owner: METRO HEALTH SYSTEMS
2500 METRO HEALTH DR.
CLEVELAND, OH 44109
Phone (216) 778-3090
Manager: BRIAN CARR
2500 METRO HEALTH DR.
CLEVELAND, OH 44109
Phone (800) 255-2229

Additional Remarks

FOR CD CTC CLEVELAND APCH AT 216-352-2323

Instrument Procedures

There are no published instrument procedures at 53OI.

Some nearby airports with instrument procedures:

KBKL - Burke Lakefront Airport (3 nm N)
KCLE - Cleveland-Hopkins International Airport (8 nm SW)
KCGF - Cuyahoga County Airport (11 nm NE)
KLNN - Lake County Executive Airport (19 nm NE)
1G1 - Elyria Airport (20 nm SW)
1G5 - Medina Municipal Airport (20 nm S)
 
Loc | Ops | Rwys | IFR | FBO | Links
Com | Nav | Svcs | Stats | Notes
Area around 53OI (Metro Health Medical Center Heliport)
 
Road maps at: MapQuest Bing Google
 
Aerial photo
No photo
 
Sectional chart

 
Airport distance calculator
Flying to Metro Health Medical Center Heliport? Find the distance to fly.

From to 53OI

Sunrise and sunset
Times for 03-Oct-2022
 Local
(UTC-4)
 Zulu
(UTC)
Morning civil twilight06:5910:59
Sunrise07:2711:27
Sunset19:0523:05
Evening civil twilight19:3323:33

Current date and time
Zulu (UTC)  04-Oct-2022 00:39:20
Local (UTC-4)  03-Oct-2022 20:39:20
 
METAR
KBKL 
5nm N 
032353Z 06006KT 10SM CLR 13/06 A3029 RMK AO2 SLP258 T01330061 10161 20133 55004
KCLE 
7nm W 
032351Z 04008KT 10SM BKN250 12/05 A3028 RMK AO2 SLP272 T01170050 10161 20117 57004 $
KCGF 
12nm NE 
032345Z 05003KT 10SM CLR 09/05 A3029
KLNN 
19nm NE 
040015Z AUTO 00000KT 10SM CLR 09/05 A3029 RMK AO1 T00860050
TAF
KCLE 
7nm W 
032047Z 0321/0424 04010KT P6SM SKC FM040100 05004KT P6SM BKN180 FM041400 01005KT P6SM SCT020
NOTAMs
Click for the latest NOTAMs
NOTAMs are issued by the DoD/FAA and will open in a separate window not controlled by AirNav.

 

 
 

Would you like to see your business listed on this page?

 If your business provides an interesting product or service to pilots, flight crews, aircraft, or users of the Metro Health Medical Center Heliport, you should consider listing it here.  To start the listing process, click on the button below
 
Add a business
 

Other Pages about Metro Health Medical Center Heliport

Update a link
 
Copyright © AirNav, LLC. All rights reserved. Privacy Policy  Contact